Time;durP1;ratioP1;P1;durP2;ratioP2;P2;SDS_P1;SDS_P2;PMS_P1;PMS_P2;Temp;Humidity;BMP_temperature;BMP_pressure;BME280_temperature;BME280_humidity;BME280_pressure;Samples;Min_cycle;Max_cycle;Signal;HPM_P1;HPM_P2
2023/07/15 00:00:12;;;;;;;4.70;2.50;;;;;;;13.83;75.11;100575.52;104377;277;97100;-54
2023/07/15 00:03:08;;;;;;;4.20;2.70;;;;;;;13.82;75.29;100574.30;104328;277;119940;-53
2023/07/15 00:05:43;;;;;;;3.40;2.30;;;;;;;13.79;75.47;100570.91;104768;273;105801;-53
2023/07/15 00:08:17;;;;;;;4.40;2.50;;;;;;;13.78;75.70;100571.58;104269;277;113859;-53
2023/07/15 00:10:53;;;;;;;4.40;2.50;;;;;;;13.79;75.69;100572.50;104289;277;97096;-53
2023/07/15 00:13:27;;;;;;;4.10;2.10;;;;;;;13.77;75.83;100569.36;104303;277;97649;-53
2023/07/15 00:16:01;;;;;;;5.80;2.60;;;;;;;13.76;76.06;100568.73;104280;277;119516;-55
2023/07/15 00:18:36;;;;;;;5.10;2.30;;;;;;;13.77;76.27;100572.28;104286;277;104274;-55
2023/07/15 00:21:20;;;;;;;4.80;2.50;;;;;;;13.78;76.20;100573.30;104294;277;113842;-53
2023/07/15 00:23:55;;;;;;;;;;;;;;;13.78;76.37;100568.78;104782;277;95110;-53
2023/07/15 00:26:34;;;;;;;5.00;2.70;;;;;;;13.77;76.48;100564.95;104285;277;97471;-54
2023/07/15 00:29:09;;;;;;;3.90;2.50;;;;;;;13.74;76.59;100567.36;104272;277;119424;-54
2023/07/15 00:31:43;;;;;;;5.50;2.70;;;;;;;13.72;76.66;100566.15;104296;277;105147;-53
2023/07/15 00:34:18;;;;;;;5.90;2.80;;;;;;;13.70;76.86;100560.87;104760;277;113057;-53
2023/07/15 00:36:50;;;;;;;;;;;;;;;13.70;76.94;100560.54;104303;281;95674;-53
2023/07/15 00:39:25;;;;;;;4.40;2.70;;;;;;;13.69;77.15;100560.23;104787;277;97698;-53
2023/07/15 00:42:08;;;;;;;5.80;3.00;;;;;;;13.72;77.37;100558.04;104747;277;120163;-53
2023/07/15 00:44:37;;;;;;;6.40;3.80;;;;;;;13.74;77.44;100554.73;104762;277;105254;-54
2023/07/15 00:47:29;;;;;;;5.20;3.10;;;;;;;13.75;77.68;100553.45;104734;277;113129;-55
2023/07/15 00:50:03;;;;;;;5.80;3.40;;;;;;;13.78;77.90;100554.91;104713;277;95061;-55
2023/07/15 00:52:36;;;;;;;;;;;;;;;13.78;77.85;100551.24;104325;277;97893;-54
2023/07/15 00:55:12;;;;;;;4.90;2.70;;;;;;;13.76;78.01;100553.48;104260;277;120048;-54
2023/07/15 00:57:46;;;;;;;5.90;3.20;;;;;;;13.77;78.07;100554.41;104744;277;104237;-54
2023/07/15 01:00:19;;;;;;;;;;;;;;;13.80;78.31;100557.30;104717;277;114203;-53
2023/07/15 01:02:54;;;;;;;4.10;2.80;;;;;;;13.79;78.25;100559.09;104300;277;96339;-53
2023/07/15 01:05:29;;;;;;;8.10;3.00;;;;;;;13.80;78.38;100560.64;104330;277;97824;-53
2023/07/15 01:08:04;;;;;;;6.80;3.20;;;;;;;13.79;78.56;100560.21;104311;277;121118;-53
2023/07/15 01:10:39;;;;;;;4.80;3.20;;;;;;;13.79;78.35;100561.05;104721;277;104708;-54
2023/07/15 01:13:13;;;;;;;4.30;3.10;;;;;;;13.77;78.55;100557.21;104281;277;113518;-54
2023/07/15 01:15:48;;;;;;;3.90;3.00;;;;;;;13.74;78.45;100560.14;104097;278;96467;-54
2023/07/15 01:18:22;;;;;;;3.80;2.90;;;;;;;13.69;78.54;100562.63;104283;277;97168;-55
2023/07/15 01:20:58;;;;;;;4.10;3.00;;;;;;;13.63;78.43;100561.64;104263;277;119531;-53
2023/07/15 01:23:33;;;;;;;4.70;2.90;;;;;;;13.59;78.73;100563.60;104767;277;105062;-53
2023/07/15 01:26:07;;;;;;;5.30;3.10;;;;;;;13.55;78.72;100562.13;104763;277;115608;-54
2023/07/15 01:28:41;;;;;;;4.30;3.40;;;;;;;13.56;78.77;100559.91;104314;277;96046;-54
2023/07/15 01:31:17;;;;;;;4.90;2.90;;;;;;;13.56;78.96;100555.41;104320;277;97196;-55
2023/07/15 01:33:52;;;;;;;5.90;3.00;;;;;;;13.56;78.84;100553.45;104286;277;119331;-55
2023/07/15 01:36:26;;;;;;;7.90;3.20;;;;;;;13.58;78.79;100550.69;104287;277;104507;-54
2023/07/15 01:38:59;;;;;;;;;;;;;;;13.59;78.77;100547.40;104301;277;114254;-54
2023/07/15 01:41:33;;;;;;;4.80;2.90;;;;;;;13.57;79.06;100546.85;104281;277;95987;-54
2023/07/15 01:44:08;;;;;;;5.00;3.20;;;;;;;13.55;79.14;100546.05;104250;277;96682;-54
2023/07/15 01:46:42;;;;;;;6.80;2.80;;;;;;;13.51;79.10;100545.84;104273;277;119556;-54
2023/07/15 01:49:17;;;;;;;5.40;3.10;;;;;;;13.48;79.23;100544.14;104259;277;105299;-54
2023/07/15 01:51:49;;;;;;;;;;;;;;;13.43;79.43;100542.76;104279;277;114899;-54
2023/07/15 01:54:23;;;;;;;5.50;3.10;;;;;;;13.40;79.57;100539.96;104752;277;96625;-54
2023/07/15 01:56:57;;;;;;;4.60;3.30;;;;;;;13.41;79.73;100540.58;104783;265;97336;-53
2023/07/15 01:59:30;;;;;;;;;;;;;;;13.39;79.76;100537.02;104288;277;119751;-53
2023/07/15 02:02:05;;;;;;;7.90;3.60;;;;;;;13.35;79.96;100537.80;104288;277;105027;-54
2023/07/15 02:04:40;;;;;;;5.30;3.30;;;;;;;13.35;79.94;100537.72;104255;277;113924;-54
2023/07/15 02:07:14;;;;;;;6.30;3.30;;;;;;;13.35;79.95;100535.39;104272;277;97237;-54
2023/07/15 02:09:48;;;;;;;4.40;3.20;;;;;;;13.36;80.08;100539.56;104301;277;96727;-54
2023/07/15 02:12:22;;;;;;;6.40;3.40;;;;;;;13.36;80.28;100538.40;104303;277;119720;-54
2023/07/15 02:14:57;;;;;;;6.00;2.90;;;;;;;13.37;80.53;100536.64;104307;277;104937;-53
2023/07/15 02:17:31;;;;;;;5.50;3.20;;;;;;;13.38;80.66;100537.39;104718;277;113499;-53
2023/07/15 02:20:07;;;;;;;4.90;3.10;;;;;;;13.40;80.73;100535.79;104258;277;96501;-53
2023/07/15 02:22:42;;;;;;;5.30;3.20;;;;;;;13.43;80.74;100539.38;104301;277;98557;-53
2023/07/15 02:25:16;;;;;;;4.70;3.20;;;;;;;13.44;80.78;100537.13;104259;277;119205;-53
2023/07/15 02:27:51;;;;;;;8.20;3.40;;;;;;;13.47;80.80;100539.43;104299;277;104089;-53
2023/07/15 02:30:26;;;;;;;8.70;3.20;;;;;;;13.54;80.64;100540.23;104268;277;114735;-53
2023/07/15 02:32:59;;;;;;;5.50;2.80;;;;;;;13.58;80.65;100544.09;104254;277;96933;-53
2023/07/15 02:35:34;;;;;;;6.30;3.50;;;;;;;13.64;80.75;100551.37;104276;277;97004;-53
2023/07/15 02:38:09;;;;;;;7.70;3.80;;;;;;;13.70;80.76;100552.05;104290;277;120364;-53
2023/07/15 02:40:43;;;;;;;6.90;3.30;;;;;;;13.74;80.95;100551.81;104295;277;104430;-53
2023/07/15 02:43:19;;;;;;;5.30;3.40;;;;;;;13.80;81.19;100553.45;104280;277;113242;-53
2023/07/15 02:45:56;;;;;;;8.00;4.90;;;;;;;13.91;81.23;100550.38;104288;277;97229;-54
2023/07/15 02:48:30;;;;;;;5.10;3.70;;;;;;;14.02;81.05;100552.23;104724;277;98976;-54
2023/07/15 02:51:04;;;;;;;5.10;3.30;;;;;;;14.12;81.41;100555.50;104288;277;121095;-55
2023/07/15 02:53:39;;;;;;;8.90;3.40;;;;;;;14.23;81.41;100555.95;104295;277;104249;-55
2023/07/15 02:56:14;;;;;;;5.50;3.40;;;;;;;14.34;81.23;100555.51;104274;277;115121;-53
2023/07/15 02:58:48;;;;;;;5.40;3.30;;;;;;;14.43;81.10;100559.02;104268;277;97102;-53
2023/07/15 03:01:24;;;;;;;5.00;2.80;;;;;;;14.55;81.20;100558.94;104300;277;97691;-55
2023/07/15 03:03:58;;;;;;;4.30;3.00;;;;;;;14.62;81.09;100556.08;104267;293;120481;-55
2023/07/15 03:06:33;;;;;;;9.70;5.10;;;;;;;14.70;80.99;100558.15;104277;277;104979;-55
2023/07/15 03:09:07;;;;;;;8.30;4.00;;;;;;;14.76;80.85;100558.02;104226;277;113589;-57
2023/07/15 03:11:40;;;;;;;;;;;;;;;14.77;80.79;100552.36;104150;277;93313;-54
2023/07/15 03:14:13;;;;;;;13.20;4.10;;;;;;;14.77;80.75;100549.57;104609;277;95972;-54
2023/07/15 03:16:48;;;;;;;8.90;3.70;;;;;;;14.78;80.81;100545.08;104146;277;120692;-55
2023/07/15 03:19:22;;;;;;;10.50;4.20;;;;;;;14.83;80.81;100543.86;104605;277;105419;-55
2023/07/15 03:21:56;;;;;;;10.20;3.60;;;;;;;14.87;80.95;100541.42;104585;278;113201;-55
2023/07/15 03:24:29;;;;;;;;;;;;;;;14.97;81.10;100539.47;104145;277;96578;-56
2023/07/15 03:27:03;;;;;;;9.40;3.60;;;;;;;15.09;80.79;100535.95;104152;277;97851;-54
2023/07/15 03:29:37;;;;;;;6.80;4.00;;;;;;;15.18;80.80;100540.14;104109;277;119385;-54
2023/07/15 03:32:11;;;;;;;8.00;3.90;;;;;;;15.25;80.45;100543.66;104604;278;104964;-54
2023/07/15 03:34:44;;;;;;;12.20;5.30;;;;;;;15.34;80.41;100546.92;104583;277;113925;-55
2023/07/15 03:37:19;;;;;;;11.80;4.30;;;;;;;15.41;80.43;100544.38;104648;278;97307;-55
2023/07/15 03:39:53;;;;;;;21.00;5.90;;;;;;;15.48;80.40;100543.97;104146;278;96529;-54
2023/07/15 03:42:28;;;;;;;11.10;4.60;;;;;;;15.56;80.48;100540.91;104130;277;120388;-55
2023/07/15 03:45:02;;;;;;;16.00;5.20;;;;;;;15.69;80.36;100542.33;104025;277;104402;-55
2023/07/15 03:47:38;;;;;;;14.20;4.00;;;;;;;16.05;79.98;100544.30;104598;277;113426;-55
2023/07/15 03:50:13;;;;;;;11.50;4.00;;;;;;;16.23;79.63;100547.10;104146;277;93185;-55
2023/07/15 03:52:47;;;;;;;16.20;6.10;;;;;;;16.19;79.59;100548.27;104144;277;97705;-55
2023/07/15 03:55:21;;;;;;;13.80;4.40;;;;;;;16.28;79.69;100552.34;104589;277;120536;-55
2023/07/15 03:57:54;;;;;;;;;;;;;;;16.36;79.49;100552.02;104115;278;105243;-55
2023/07/15 04:00:28;;;;;;;9.30;4.30;;;;;;;16.35;79.62;100551.69;104099;277;114705;-54
2023/07/15 04:03:02;;;;;;;;;;;;;;;16.38;79.52;100549.20;104108;277;96784;-54
2023/07/15 04:05:36;;;;;;;9.60;4.80;;;;;;;16.41;79.69;100542.45;104149;277;96705;-55
2023/07/15 04:08:11;;;;;;;11.00;4.00;;;;;;;16.52;79.45;100543.84;104063;277;120517;-56
2023/07/15 04:10:47;;;;;;;5.90;4.00;;;;;;;16.84;79.74;100545.86;104094;277;105207;-56
2023/07/15 04:13:21;;;;;;;5.70;3.80;;;;;;;17.35;79.14;100548.08;104603;277;114410;-56
2023/07/15 04:15:55;;;;;;;6.40;3.80;;;;;;;17.42;78.84;100548.56;104125;278;93911;-54
2023/07/15 04:18:30;;;;;;;7.00;3.60;;;;;;;17.66;78.56;100551.25;104105;277;96496;-56
2023/07/15 04:21:04;;;;;;;6.70;3.70;;;;;;;17.69;78.26;100548.98;104126;277;120047;-54
2023/07/15 04:23:38;;;;;;;7.30;3.50;;;;;;;17.93;78.13;100549.34;104154;277;105928;-54
2023/07/15 04:26:12;;;;;;;;;;;;;;;18.14;77.55;100550.31;104593;277;112364;-54
2023/07/15 04:28:46;;;;;;;4.90;3.30;;;;;;;18.06;77.25;100553.77;104089;277;96794;-54
2023/07/15 04:31:21;;;;;;;6.00;3.50;;;;;;;18.05;77.00;100554.13;104134;278;96105;-56
2023/07/15 04:33:56;;;;;;;6.80;4.10;;;;;;;18.18;76.91;100548.69;104106;277;119755;-55
2023/07/15 04:36:31;;;;;;;7.00;5.00;;;;;;;18.39;76.64;100546.45;104128;278;106066;-54
2023/07/15 04:39:06;;;;;;;7.80;5.30;;;;;;;18.66;76.42;100545.91;104606;277;115058;-54
2023/07/15 04:41:40;;;;;;;8.10;6.00;;;;;;;18.99;76.23;100549.37;104105;277;94533;-54
2023/07/15 04:44:14;;;;;;;8.60;6.00;;;;;;;19.39;75.90;100542.71;104104;277;97347;-54
2023/07/15 04:46:48;;;;;;;8.30;6.30;;;;;;;19.92;75.31;100544.35;104098;277;120619;-56
2023/07/15 04:49:23;;;;;;;8.10;5.90;;;;;;;20.32;74.53;100539.92;104100;277;105514;-56
2023/07/15 04:51:57;;;;;;;7.40;5.50;;;;;;;20.73;73.57;100535.38;104068;277;114612;-54
2023/07/15 04:54:32;;;;;;;10.60;5.60;;;;;;;21.35;72.32;100534.44;104583;277;93140;-54
2023/07/15 04:57:07;;;;;;;8.70;5.80;;;;;;;21.62;71.43;100530.35;104606;277;97591;-54
2023/07/15 04:59:42;;;;;;;9.00;5.30;;;;;;;22.24;70.49;100531.21;104136;277;119886;-54
2023/07/15 05:02:17;;;;;;;7.40;5.30;;;;;;;23.87;68.95;100524.38;104093;277;106398;-54
2023/07/15 05:04:51;;;;;;;6.20;4.70;;;;;;;25.50;66.44;100515.88;104120;277;113968;-55
2023/07/15 05:07:25;;;;;;;;;;;;;;;26.57;63.63;100517.74;104567;277;94500;-55
2023/07/15 05:09:59;;;;;;;7.70;4.50;;;;;;;27.59;61.48;100513.45;104581;277;95865;-55
2023/07/15 05:12:33;;;;;;;7.30;4.80;;;;;;;28.55;58.76;100512.52;104114;276;121045;-54
2023/07/15 05:15:06;;;;;;;;;;;;;;;29.24;56.72;100511.89;104648;277;104631;-54
2023/07/15 05:17:42;;;;;;;7.60;4.20;;;;;;;29.72;54.98;100512.83;103704;278;514446;-54
2023/07/15 05:20:18;;;;;;;4.20;3.80;;;;;;;30.53;52.87;100513.33;104073;277;93867;-56
2023/07/15 05:22:52;;;;;;;5.70;3.50;;;;;;;31.31;50.96;100518.10;104125;277;98137;-62
2023/07/15 05:25:27;;;;;;;4.90;3.70;;;;;;;31.84;48.83;100509.64;104556;277;120518;-55
2023/07/15 05:28:01;;;;;;;4.30;3.10;;;;;;;32.26;47.24;100504.67;104114;277;105592;-55
2023/07/15 05:30:39;;;;;;;4.60;3.30;;;;;;;32.93;46.06;100507.10;104089;277;115055;-57
2023/07/15 05:33:13;;;;;;;4.00;3.00;;;;;;;33.79;44.36;100506.56;104143;278;95010;-56
2023/07/15 05:35:48;;;;;;;5.10;3.20;;;;;;;34.32;42.59;100509.79;104110;277;96499;-56
2023/07/15 05:38:24;;;;;;;5.00;2.80;;;;;;;34.74;40.48;100507.15;104109;277;120455;-56
2023/07/15 05:40:58;;;;;;;4.60;2.80;;;;;;;34.87;39.46;100504.41;104604;277;105206;-56
2023/07/15 05:43:32;;;;;;;4.30;2.90;;;;;;;34.34;38.69;100503.11;104146;277;114528;-57
2023/07/15 05:46:06;;;;;;;3.60;2.80;;;;;;;34.14;38.49;100507.30;104138;277;93138;-55
2023/07/15 05:48:41;;;;;;;2.90;2.60;;;;;;;33.93;37.12;100507.83;104146;277;98019;-56
2023/07/15 05:51:15;;;;;;;3.60;2.20;;;;;;;33.54;36.87;100504.95;104167;277;119543;-56
2023/07/15 05:53:49;;;;;;;5.30;2.80;;;;;;;33.60;36.62;100504.90;104133;277;106470;-56
2023/07/15 05:56:23;;;;;;;4.90;2.60;;;;;;;33.84;36.20;100505.48;104112;277;114354;-55
2023/07/15 05:58:57;;;;;;;5.00;3.20;;;;;;;34.97;35.72;100505.77;104144;278;93645;-55
2023/07/15 06:01:31;;;;;;;3.60;2.60;;;;;;;36.03;34.51;100503.13;104131;277;97582;-56
2023/07/15 06:04:09;;;;;;;5.00;2.40;;;;;;;36.46;33.53;100501.19;104151;277;120448;-56
2023/07/15 06:06:43;;;;;;;4.80;2.30;;;;;;;36.91;32.98;100500.78;104121;277;106535;-55
2023/07/15 06:09:18;;;;;;;3.30;2.60;;;;;;;37.47;31.79;100499.48;104110;277;115098;-55
2023/07/15 06:11:52;;;;;;;4.80;3.00;;;;;;;37.79;31.08;100496.16;104618;277;92407;-55
2023/07/15 06:14:26;;;;;;;3.10;2.80;;;;;;;38.10;30.83;100492.27;104126;277;97651;-55
2023/07/15 06:17:01;;;;;;;3.50;2.50;;;;;;;38.33;29.82;100494.04;104129;277;121464;-55
2023/07/15 06:19:35;;;;;;;3.80;2.50;;;;;;;38.32;29.09;100494.13;104159;277;104956;-55
2023/07/15 06:22:09;;;;;;;3.30;2.70;;;;;;;38.63;28.61;100496.65;104085;278;113602;-55
2023/07/15 06:24:44;;;;;;;4.80;2.20;;;;;;;38.91;28.07;100499.61;104122;277;93179;-56
2023/07/15 06:27:17;;;;;;;5.90;2.80;;;;;;;39.03;27.59;100502.15;104137;277;96734;-55
2023/07/15 06:29:52;;;;;;;3.50;2.30;;;;;;;39.05;27.09;100499.92;104077;277;121168;-56
2023/07/15 06:32:26;;;;;;;5.10;2.50;;;;;;;39.05;26.52;100500.00;104599;277;106116;-56
2023/07/15 06:35:00;;;;;;;4.60;2.40;;;;;;;39.53;26.10;100503.46;104633;277;113775;-55
2023/07/15 06:37:35;;;;;;;4.30;2.60;;;;;;;39.85;25.48;100495.80;104104;277;93886;-55
2023/07/15 06:40:12;;;;;;;3.10;2.40;;;;;;;40.01;25.28;100500.29;104597;277;96524;-54
2023/07/15 06:42:47;;;;;;;2.70;2.40;;;;;;;40.39;24.80;100499.30;104129;277;120457;-54
2023/07/15 06:45:32;;;;;;;2.80;2.50;;;;;;;40.46;24.34;100493.24;104641;277;103573;-55
2023/07/15 06:48:06;;;;;;;3.70;2.20;;;;;;;40.73;24.05;100492.16;104126;277;114501;-55
2023/07/15 06:50:41;;;;;;;2.60;2.30;;;;;;;40.88;23.70;100483.98;104164;277;95187;-55
2023/07/15 06:53:15;;;;;;;3.40;2.50;;;;;;;40.72;24.03;100491.98;104194;277;97876;-55
2023/07/15 06:55:50;;;;;;;2.90;2.50;;;;;;;40.67;23.77;100490.89;104119;278;121651;-55
2023/07/15 06:58:24;;;;;;;4.30;3.10;;;;;;;40.50;23.69;100490.70;104115;277;105549;-55
2023/07/15 07:00:59;;;;;;;4.70;2.50;;;;;;;40.40;23.53;100491.38;104150;277;114919;-55
2023/07/15 07:03:33;;;;;;;5.40;2.60;;;;;;;40.24;23.42;100488.54;104601;277;93459;-55
2023/07/15 07:06:08;;;;;;;4.70;2.30;;;;;;;39.99;23.66;100492.58;104154;278;96844;-56
2023/07/15 07:08:42;;;;;;;2.70;2.20;;;;;;;39.96;23.37;100488.81;104124;277;121500;-56
2023/07/15 07:11:16;;;;;;;3.10;2.80;;;;;;;40.10;23.45;100487.55;104157;277;105126;-55
2023/07/15 07:13:50;;;;;;;3.20;2.10;;;;;;;40.32;23.45;100489.52;104140;277;113999;-55
2023/07/15 07:16:24;;;;;;;3.10;2.20;;;;;;;40.51;22.99;100483.66;104112;277;94734;-56
2023/07/15 07:18:58;;;;;;;3.50;2.40;;;;;;;40.78;22.61;100481.59;104124;277;95230;-56
2023/07/15 07:21:32;;;;;;;3.10;2.40;;;;;;;40.96;22.78;100473.20;104150;277;119733;-56
2023/07/15 07:24:07;;;;;;;5.00;2.10;;;;;;;41.24;22.54;100470.92;104643;277;105711;-56
2023/07/15 07:26:41;;;;;;;3.00;2.30;;;;;;;41.40;22.00;100474.28;104144;277;115244;-56
2023/07/15 07:29:15;;;;;;;4.30;2.40;;;;;;;41.31;22.05;100476.72;104598;277;94272;-56
2023/07/15 07:31:49;;;;;;;4.00;2.50;;;;;;;41.35;21.75;100470.67;104070;278;97862;-55
2023/07/15 07:34:24;;;;;;;2.80;2.40;;;;;;;41.54;22.20;100469.66;104606;277;119242;-55
2023/07/15 07:36:58;;;;;;;3.80;2.60;;;;;;;41.60;21.88;100471.33;104158;277;104533;-55
2023/07/15 07:39:36;;;;;;;3.00;2.20;;;;;;;41.35;21.29;100469.79;104126;277;113968;-55
2023/07/15 07:42:10;;;;;;;2.90;2.30;;;;;;;41.25;21.47;100475.30;104099;277;93558;-56
2023/07/15 07:44:44;;;;;;;2.70;2.40;;;;;;;41.03;21.74;100471.64;104127;277;97977;-55
2023/07/15 07:47:19;;;;;;;3.80;2.60;;;;;;;41.18;21.87;100470.95;104124;277;120739;-56
2023/07/15 07:49:53;;;;;;;4.90;2.60;;;;;;;41.36;21.96;100465.58;104128;277;105916;-56
2023/07/15 07:52:28;;;;;;;2.70;2.40;;;;;;;41.01;22.08;100466.77;104124;277;113627;-57
2023/07/15 07:55:03;;;;;;;3.30;2.30;;;;;;;40.99;21.99;100457.19;104156;277;94013;-55
2023/07/15 07:57:38;;;;;;;3.10;2.30;;;;;;;40.97;22.14;100461.87;104693;277;97847;-55
2023/07/15 08:00:16;;;;;;;2.40;2.20;;;;;;;41.19;21.87;100458.31;104109;277;120709;-55
2023/07/15 08:02:51;;;;;;;6.00;2.90;;;;;;;41.24;21.48;100458.11;104143;277;105829;-56
2023/07/15 08:05:25;;;;;;;7.10;2.80;;;;;;;40.84;21.34;100467.98;104109;277;112952;-55
2023/07/15 08:07:59;;;;;;;6.60;2.40;;;;;;;41.13;21.59;100473.42;104128;277;94612;-55
2023/07/15 08:10:34;;;;;;;3.90;2.30;;;;;;;41.15;21.45;100469.46;104142;277;97992;-56
2023/07/15 08:13:08;;;;;;;2.80;2.30;;;;;;;41.14;21.74;100466.31;104665;277;121077;-57
2023/07/15 08:15:43;;;;;;;2.40;2.20;;;;;;;41.23;21.33;100460.20;104112;277;105061;-55
2023/07/15 08:18:17;;;;;;;4.00;2.40;;;;;;;41.25;21.47;100462.57;104138;277;113820;-55
2023/07/15 08:20:52;;;;;;;4.10;2.50;;;;;;;41.32;21.27;100463.04;104136;266;94822;-56
2023/07/15 08:23:26;;;;;;;4.50;2.50;;;;;;;41.07;21.11;100453.36;104166;277;95667;-56
2023/07/15 08:26:01;;;;;;;5.20;2.70;;;;;;;41.05;21.27;100459.20;104112;277;121318;-55
2023/07/15 08:28:34;;;;;;;2.50;2.30;;;;;;;41.13;20.78;100459.23;104115;277;105559;-55
2023/07/15 08:31:09;;;;;;;3.60;2.50;;;;;;;40.87;21.00;100459.92;104132;277;113659;-56
2023/07/15 08:33:43;;;;;;;2.60;2.20;;;;;;;40.70;21.31;100450.67;104100;278;94068;-56
2023/07/15 08:36:17;;;;;;;4.60;2.60;;;;;;;40.62;21.57;100454.48;104137;277;98249;-55
2023/07/15 08:38:51;;;;;;;3.50;2.50;;;;;;;40.61;21.28;100451.41;104122;277;120867;-55
2023/07/15 08:41:26;;;;;;;4.50;2.40;;;;;;;40.64;21.72;100449.97;104135;277;105312;-54
2023/07/15 08:44:01;;;;;;;4.50;2.40;;;;;;;40.57;21.38;100447.33;104133;277;113308;-54
2023/07/15 08:46:35;;;;;;;3.20;2.70;;;;;;;40.40;21.08;100449.72;104108;277;94713;-54
2023/07/15 08:49:09;;;;;;;2.80;2.10;;;;;;;40.38;21.06;100452.67;104665;277;98177;-54
2023/07/15 08:51:46;;;;;;;2.80;2.20;;;;;;;40.07;21.22;100450.23;104148;277;120609;-54
2023/07/15 08:54:21;;;;;;;3.30;2.40;;;;;;;39.91;21.41;100447.59;104634;277;104435;-54
2023/07/15 08:56:55;;;;;;;2.70;2.30;;;;;;;40.00;21.66;100440.98;104114;266;114649;-55
2023/07/15 08:59:30;;;;;;;3.70;2.40;;;;;;;39.91;21.59;100440.80;104610;277;94068;-55
2023/07/15 09:02:04;;;;;;;2.90;2.40;;;;;;;40.02;22.26;100434.40;104158;277;97213;-55
2023/07/15 09:04:39;;;;;;;4.00;2.40;;;;;;;40.03;21.80;100436.66;104140;277;120690;-55
2023/07/15 09:07:13;;;;;;;4.30;2.40;;;;;;;39.62;22.06;100439.19;104604;277;105600;-54
2023/07/15 09:09:48;;;;;;;3.20;2.50;;;;;;;39.20;22.26;100436.54;104129;277;115086;-54
2023/07/15 09:12:26;;;;;;;4.10;2.70;;;;;;;38.85;22.54;100431.92;104128;277;94540;-54
2023/07/15 09:15:01;;;;;;;2.70;2.30;;;;;;;37.90;22.47;100434.36;104160;277;97238;-54
2023/07/15 09:17:37;;;;;;;4.40;2.60;;;;;;;36.88;23.18;100427.88;104104;278;121071;-54
2023/07/15 09:20:20;;;;;;;2.70;2.30;;;;;;;36.54;24.14;100423.63;104035;277;106642;-54
2023/07/15 09:22:58;;;;;;;4.10;2.30;;;;;;;36.18;24.51;100420.78;104098;278;113672;-54
2023/07/15 09:25:32;;;;;;;3.40;2.40;;;;;;;35.88;25.06;100413.95;104152;277;94148;-53
2023/07/15 09:28:10;;;;;;;3.80;2.50;;;;;;;35.47;25.37;100417.92;104131;277;96594;-53
2023/07/15 09:30:45;;;;;;;3.30;2.90;;;;;;;35.25;25.89;100416.19;104129;277;120889;-54
2023/07/15 09:33:38;;;;;;;3.30;2.50;;;;;;;35.14;26.39;100417.14;104084;277;103420;-54
2023/07/15 09:36:14;;;;;;;4.10;2.20;;;;;;;35.13;26.43;100419.85;104154;277;114406;-54
2023/07/15 09:38:51;;;;;;;4.10;2.30;;;;;;;35.03;26.25;100415.55;104610;277;94278;-55
2023/07/15 09:41:24;;;;;;;3.60;2.30;;;;;;;34.97;26.86;100420.27;104067;277;99051;-55
2023/07/15 09:43:58;;;;;;;3.40;2.50;;;;;;;34.95;26.97;100416.42;104124;278;118641;-54
2023/07/15 09:46:33;;;;;;;4.60;2.50;;;;;;;34.72;26.88;100416.77;104168;278;104102;-54
2023/07/15 09:49:07;;;;;;;3.60;2.20;;;;;;;34.67;27.22;100417.09;104106;277;114220;-55
2023/07/15 09:51:42;;;;;;;2.90;2.30;;;;;;;34.19;27.09;100411.13;104140;277;93620;-55
2023/07/15 09:54:17;;;;;;;3.20;2.30;;;;;;;34.08;27.53;100410.81;104160;278;97677;-53
2023/07/15 09:56:54;;;;;;;2.60;1.80;;;;;;;34.04;27.43;100401.70;104135;277;120529;-56
2023/07/15 09:59:34;;;;;;;5.30;2.90;;;;;;;33.93;27.76;100405.11;104176;278;105960;-56
2023/07/15 10:02:24;;;;;;;3.70;2.40;;;;;;;33.82;27.92;100408.31;104123;277;115172;-56
2023/07/15 10:05:06;;;;;;;3.20;2.20;;;;;;;33.83;28.18;100396.53;104607;277;93388;-55
2023/07/15 10:07:42;;;;;;;4.40;2.30;;;;;;;33.84;28.15;100392.20;104130;277;97785;-56
2023/07/15 10:10:16;;;;;;;5.00;2.50;;;;;;;33.79;28.17;100395.14;104151;277;120236;-54
2023/07/15 10:12:51;;;;;;;4.30;2.60;;;;;;;33.62;28.14;100387.45;104144;277;105250;-55
2023/07/15 10:15:25;;;;;;;4.90;2.30;;;;;;;33.59;28.29;100385.77;104145;277;114328;-55
2023/07/15 10:18:11;;;;;;;3.90;2.20;;;;;;;33.55;28.39;100383.65;104167;277;93944;-55
2023/07/15 10:20:56;;;;;;;3.50;2.40;;;;;;;33.73;28.43;100383.73;104127;277;98476;-56
2023/07/15 10:23:33;;;;;;;4.20;3.00;;;;;;;33.56;28.25;100384.68;104149;277;120457;-56
2023/07/15 10:26:11;;;;;;;3.20;2.80;;;;;;;33.43;28.45;100380.48;104670;277;103961;-56
2023/07/15 10:28:52;;;;;;;3.30;2.70;;;;;;;33.34;28.95;100384.10;104164;277;114186;-56
2023/07/15 10:31:27;;;;;;;2.90;2.40;;;;;;;33.41;29.20;100378.77;104092;277;95137;-56
2023/07/15 10:34:07;;;;;;;4.20;2.30;;;;;;;33.56;29.16;100375.23;104135;277;97048;-56
2023/07/15 10:36:47;;;;;;;3.30;2.40;;;;;;;33.61;29.04;100374.20;104620;277;120233;-56
2023/07/15 10:39:22;;;;;;;3.40;2.90;;;;;;;33.50;28.96;100372.73;104139;277;104342;-56
2023/07/15 10:42:07;;;;;;;3.70;2.70;;;;;;;33.64;29.19;100374.33;104129;269;113630;-55
2023/07/15 10:44:46;;;;;;;4.70;2.70;;;;;;;33.63;29.23;100371.10;104605;277;94340;-55
2023/07/15 10:47:21;;;;;;;3.80;2.60;;;;;;;33.56;29.15;100375.01;104149;277;97240;-56
2023/07/15 10:49:55;;;;;;;4.40;2.80;;;;;;;33.30;29.13;100374.35;104160;277;119105;-56
2023/07/15 10:52:31;;;;;;;3.80;2.60;;;;;;;33.28;29.09;100368.38;104153;277;105838;-56
2023/07/15 10:55:06;;;;;;;3.90;2.50;;;;;;;33.29;29.02;100366.34;104578;277;113564;-56
2023/07/15 10:57:40;;;;;;;3.30;2.70;;;;;;;33.14;29.12;100362.41;104108;277;93774;-56
2023/07/15 11:00:15;;;;;;;4.00;3.00;;;;;;;33.14;29.01;100361.92;104635;277;96868;-54
2023/07/15 11:02:49;;;;;;;4.10;2.80;;;;;;;33.25;29.43;100362.72;104113;277;119864;-54
2023/07/15 11:05:25;;;;;;;3.00;2.70;;;;;;;33.15;29.23;100362.67;104125;277;105160;-56
2023/07/15 11:08:00;;;;;;;2.60;2.30;;;;;;;33.14;29.49;100361.02;104115;277;112426;-56
2023/07/15 11:10:38;;;;;;;3.00;2.50;;;;;;;33.19;29.46;100362.56;104131;277;93206;-55
2023/07/15 11:13:21;;;;;;;3.40;2.30;;;;;;;33.01;29.28;100353.69;104173;277;98237;-54
2023/07/15 11:15:56;;;;;;;3.00;2.30;;;;;;;32.98;29.34;100353.08;104617;277;119390;-56
2023/07/15 11:18:31;;;;;;;4.30;2.50;;;;;;;32.90;29.35;100351.65;104121;277;103628;-55
2023/07/15 11:21:06;;;;;;;3.60;2.80;;;;;;;32.99;29.40;100349.61;104135;277;115145;-54
2023/07/15 11:23:46;;;;;;;3.10;2.40;;;;;;;33.00;29.45;100343.09;104165;277;93822;-54
2023/07/15 11:26:25;;;;;;;3.70;2.80;;;;;;;32.78;29.70;100345.30;104198;277;97682;-54
2023/07/15 11:28:59;;;;;;;3.20;2.70;;;;;;;32.87;30.01;100345.15;104162;277;119894;-54
2023/07/15 11:31:40;;;;;;;2.60;2.30;;;;;;;32.90;30.02;100338.77;104139;277;105190;-54
2023/07/15 11:34:15;;;;;;;5.30;2.40;;;;;;;32.98;29.87;100334.21;104109;277;113821;-55
2023/07/15 11:36:51;;;;;;;4.30;2.60;;;;;;;33.13;30.53;100324.44;104629;277;95060;-56
2023/07/15 11:39:27;;;;;;;4.20;2.50;;;;;;;33.27;30.27;100326.46;104154;277;96920;-56
2023/07/15 11:42:02;;;;;;;4.00;2.20;;;;;;;33.22;29.77;100322.48;104150;277;120314;-54
2023/07/15 11:44:40;;;;;;;4.60;2.60;;;;;;;33.15;29.45;100318.19;104148;278;105447;-54
2023/07/15 11:47:14;;;;;;;4.60;2.40;;;;;;;33.03;30.13;100319.92;104154;277;114077;-54
2023/07/15 11:49:49;;;;;;;3.70;2.50;;;;;;;33.02;29.66;100328.91;104625;277;94817;-55
2023/07/15 11:52:26;;;;;;;4.20;2.60;;;;;;;33.10;29.32;100323.34;104169;277;97138;-55
2023/07/15 11:55:02;;;;;;;3.50;2.20;;;;;;;33.20;29.32;100320.79;104152;277;120347;-55
2023/07/15 11:57:45;;;;;;;7.30;3.10;;;;;;;33.17;29.34;100319.00;104672;277;105250;-54
2023/07/15 12:00:36;;;;;;;2.90;2.10;;;;;;;33.29;29.59;100323.75;104674;277;114519;-55